Latest Weather Observations for Kuitpo

IDS60801

Issued at 9:31 pm CST Friday 27 May 2016 (issued every 30 minutes, with the page automatically refreshed every 10 minutes)

About weather observations | Map of weather stations | Latest weather observations for SA | Other Formats
Station Details ID: 023887 Name: KUITPO FOREST RESERVE Lat: -35.17 Lon: 138.68 Height: 365.0 m
Data from the previous 72 hours. | See also: Recent months at Kuitpo
Date/Time
CST
Temp
°C
App
Temp
°C
Dew
Point
Rel
Hum
%
Delta-T
°C
Wind Press
QNH
hPa
Press
MSL
hPa
Rain
since 9 am
mm
Dir
 
Spd
km/h
Gust
km/h
Spd
kts
Gust
kts
27/09:30pm 7.4 2.9 7.0 97 0.2 WSW 20 35 11 19 1008.2 1007.9 13.4
27/09:00pm 7.5 3.2 6.9 96 0.3 WSW 19 32 10 17 1008.0 1007.7 13.2
27/08:30pm 7.3 2.0 6.7 96 0.3 SW 24 35 13 19 1007.6 1007.3 12.6
27/08:00pm 7.5 1.9 7.1 97 0.2 WSW 26 44 14 24 1007.4 1007.2 12.2
27/07:30pm 7.4 1.6 6.2 92 0.6 SW 26 43 14 23 1006.8 1006.5 11.4
27/07:04pm 7.8 1.8 6.9 94 0.4 SW 28 50 15 27 1006.4 1006.1 10.8
27/07:00pm 8.0 2.8 7.1 94 0.4 SW 24 50 13 27 1006.5 1006.2 10.6
27/06:34pm 8.8 2.8 7.1 89 0.8 SW 28 46 15 25 1006.0 1005.7 8.6
27/06:30pm 8.8 2.8 7.1 89 0.8 SW 28 44 15 24 1005.9 1005.6 8.6
27/06:00pm 8.8 2.7 6.6 86 1.0 WSW 28 43 15 23 1005.5 1005.2 8.4
27/05:30pm 8.7 3.3 6.5 86 1.0 WSW 24 39 13 21 1005.2 1004.9 8.4
27/05:00pm 8.4 3.8 6.4 87 0.9 WSW 20 35 11 19 1005.0 1004.7 8.4
27/04:30pm 8.4 4.4 6.5 88 0.9 WSW 17 28 9 15 1004.7 1004.3 8.0
27/04:00pm 7.7 4.4 6.6 93 0.5 W 13 20 7 11 1004.5 1004.2 8.0
27/03:30pm 7.2 1.9 5.2 87 0.9 WSW 22 35 12 19 1004.5 1004.2 7.8
27/03:00pm 9.0 4.5 7.0 87 1.0 W 20 35 11 19 1004.2 1003.9 7.6
27/02:30pm 8.4 4.7 8.0 97 0.2 W 17 28 9 15 1004.2 1003.9 7.6
27/02:00pm 7.9 5.3 7.6 98 0.1 W 11 17 6 9 1004.3 1004.0 7.6
27/01:30pm 7.6 2.8 7.3 98 0.1 WSW 22 35 12 19 1004.7 1004.3 7.2
27/01:00pm 8.6 1.9 8.2 97 0.2 WSW 33 52 18 28 1004.4 1004.1 5.8
27/12:51pm 8.8 3.8 8.2 96 0.3 W 24 46 13 25 1004.4 1004.1 4.8
27/12:30pm 9.4 6.6 8.6 95 0.4 WNW 13 22 7 12 1004.7 1004.3 1.8
27/12:00pm 9.3 5.1 8.4 94 0.4 W 20 35 11 19 1005.3 1005.0 1.6
27/11:30am 11.6 7.6 9.2 85 1.2 WNW 20 35 11 19 1005.3 1005.0 0.0
27/11:00am 11.4 6.3 9.3 87 1.1 WNW 26 46 14 25 1005.9 1005.6 0.0
27/10:54am 11.8 6.4 9.4 85 1.2 WNW 28 48 15 26 1006.0 1005.7 0.0
27/10:30am 12.1 7.2 8.6 79 1.8 WNW 24 39 13 21 1006.0 1005.7 0.0
27/10:00am 12.1 7.0 9.3 83 1.4 WNW 26 41 14 22 1006.1 1005.8 0.0
27/09:30am 11.6 7.1 10.0 90 0.8 WNW 24 35 13 19 1006.3 1006.0 0.0
27/09:00am 11.0 7.0 10.4 96 0.3 WNW 22 43 12 23 1006.4 1006.1 9.8
27/08:30am 10.3 6.7 9.8 97 0.3 WNW 19 32 10 17 1006.3 1006.0 9.8
27/08:00am 9.2 3.9 8.4 95 0.4 W 26 44 14 24 1006.5 1006.2 9.8
27/07:46am 10.0 3.6 8.6 91 0.7 WNW 32 57 17 31 1006.2 1005.9 8.6
27/07:30am 11.0 5.4 10.1 94 0.5 WNW 30 50 16 27 1006.2 1005.9 8.4
27/07:26am 10.9 5.6 10.0 94 0.5 WNW 28 48 15 26 1006.2 1005.9 8.4
27/07:00am 10.6 6.0 9.8 95 0.4 NW 24 43 13 23 1006.5 1006.2 8.4
27/06:30am 9.8 5.5 9.5 98 0.2 WNW 22 39 12 21 1006.8 1006.5 8.4
27/06:11am 10.0 4.7 9.9 99 0.1 NW 28 59 15 32 1006.6 1006.3 7.6
27/06:00am 10.9 7.4 10.9 100 0.0 NW 20 32 11 17 1006.5 1006.2 6.6
27/05:30am 10.7 7.3 10.5 99 0.1 NW 19 33 10 18 1006.8 1006.5 6.6
27/05:00am 11.0 7.7 10.8 99 0.1 NW 19 32 10 17 1007.1 1006.8 6.6
27/04:30am 10.7 7.7 10.5 99 0.1 NW 17 28 9 15 1007.3 1007.1 6.6
27/04:00am 10.4 7.7 10.2 99 0.1 NW 15 24 8 13 1007.7 1007.4 6.6
27/03:30am 10.4 7.6 10.1 98 0.2 NNW 15 22 8 12 1008.1 1007.8 6.6
27/03:00am 10.3 7.9 10.0 98 0.2 NNW 13 24 7 13 1008.5 1008.2 5.4
27/02:30am 10.4 8.0 9.9 97 0.3 NNW 13 20 7 11 1008.6 1008.3 4.8
27/02:00am 10.4 8.0 9.9 97 0.3 NW 13 19 7 10 1008.8 1008.5 4.8
27/01:30am 10.5 8.1 9.9 96 0.3 NW 13 17 7 9 1009.1 1008.8 4.8
27/01:00am 10.3 7.4 9.5 95 0.4 NW 15 20 8 11 1009.2 1008.9 4.8
27/12:30am 10.3 8.2 9.7 96 0.3 NW 11 17 6 9 1009.4 1009.1 4.8
27/12:00am 10.2 8.1 9.7 97 0.3 WNW 11 15 6 8 1009.6 1009.4 4.8
 
Date/Time
CST
Temp
°C
App
Temp
°C
Dew
Point
Rel
Hum
%
Delta-T
°C
Wind Press
QNH
hPa
Press
MSL
hPa
Rain
since 9 am
mm
Dir
 
Spd
km/h
Gust
km/h
Spd
kts
Gust
kts
26/11:30pm 10.0 7.8 9.5 97 0.3 WNW 11 17 6 9 1009.9 1009.7 4.6
26/11:00pm 10.2 8.1 9.7 97 0.3 W 11 17 6 9 1010.1 1009.9 4.2
26/10:30pm 10.1 7.9 9.5 96 0.3 WNW 11 17 6 9 1010.1 1009.9 2.2
26/10:00pm 9.9 8.0 9.1 95 0.4 W 9 11 5 6 1010.5 1010.2 2.0
26/09:30pm 10.0 7.7 8.9 93 0.6 W 11 17 6 9 1010.6 1010.3 1.8
26/09:00pm 10.4 8.2 9.2 92 0.6 WNW 11 15 6 8 1010.7 1010.4 0.0
26/08:30pm 10.5 7.5 9.4 93 0.6 WSW 15 20 8 11 1010.6 1010.3 0.0
26/08:00pm 10.2 7.9 9.1 93 0.6 WSW 11 19 6 10 1010.3 1010.1 0.0
26/07:30pm 10.7 7.9 8.6 87 1.1 W 13 20 7 11 1010.0 1009.8 0.0
26/07:00pm 10.5 8.5 8.8 89 0.9 W 9 13 5 7 1009.9 1009.7 0.0
26/06:30pm 10.4 8.0 8.7 89 0.9 W 11 15 6 8 1009.7 1009.5 0.0
26/06:00pm 10.4 7.6 8.5 88 1.0 W 13 17 7 9 1009.6 1009.4 0.0
26/05:30pm 10.7 8.6 8.3 85 1.2 W 9 13 5 7 1009.2 1008.9 0.0
26/05:00pm 11.2 8.7 8.4 83 1.4 W 11 15 6 8 1009.1 1008.8 0.0
26/04:30pm 12.1 8.8 8.2 77 2.0 W 15 24 8 13 1008.9 1008.6 0.0
26/04:00pm 12.9 9.3 8.4 74 2.3 WSW 17 24 9 13 1008.6 1008.3 0.0
26/03:30pm 13.2 9.3 8.5 73 2.4 WSW 19 24 10 13 1008.5 1008.2 0.0
26/03:00pm 13.1 9.2 7.1 67 3.0 W 17 24 9 13 1008.3 1008.0 0.0
26/02:30pm 13.5 10.1 7.7 68 2.9 W 15 30 8 16 1008.0 1007.7 0.0
26/02:00pm 13.2 8.8 6.5 64 3.3 WSW 19 30 10 16 1007.9 1007.6 0.0
26/01:30pm 13.0 8.7 7.7 70 2.7 WSW 20 30 11 16 1008.2 1007.9 0.0
26/01:00pm 13.3 8.7 8.2 71 2.6 W 22 33 12 18 1008.4 1008.1 0.0
26/12:30pm 12.9 8.6 8.0 72 2.5 W 20 30 11 16 1008.1 1007.8 0.0
26/12:00pm 13.4 10.2 8.3 71 2.6 WSW 15 28 8 15 1008.3 1008.0 0.0
26/11:30am 12.9 9.1 7.6 70 2.6 WSW 17 28 9 15 1008.4 1008.1 0.0
26/11:00am 12.5 9.4 8.8 78 1.9 SW 15 24 8 13 1008.6 1008.3 0.0
26/10:30am 12.0 8.9 9.0 82 1.5 SW 15 22 8 12 1008.6 1008.3 0.0
26/10:00am 11.5 8.8 8.9 84 1.3 WSW 13 20 7 11 1008.6 1008.3 0.0
26/09:30am 10.8 8.1 8.9 88 1.0 WSW 13 20 7 11 1008.5 1008.2 0.0
26/09:00am 10.2 8.1 9.9 98 0.2 WSW 11 17 6 9 1008.2 1007.9 18.4
26/08:30am 9.9 8.2 9.8 99 0.1 WSW 9 15 5 8 1008.1 1007.8 18.4
26/08:00am 9.4 7.2 9.3 99 0.1 WSW 11 17 6 9 1007.9 1007.6 18.4
26/07:30am 9.9 7.5 9.9 100 0.0 SW 13 17 7 9 1007.8 1007.5 18.0
26/07:00am 9.9 7.8 9.9 100 0.0 WSW 11 15 6 8 1007.4 1007.2 18.0
26/06:30am 9.9 8.2 9.9 100 0.0 WSW 9 11 5 6 1007.0 1006.7 18.0
26/06:00am 10.0 8.0 10.0 100 0.0 WSW 11 13 6 7 1006.8 1006.5 18.0
26/05:30am 10.0 8.3 10.0 100 0.0 SW 9 13 5 7 1006.6 1006.3 18.0
26/05:00am 10.2 8.6 10.2 100 0.0 SW 9 15 5 8 1006.4 1006.1 18.0
26/04:30am 10.2 8.6 10.2 100 0.0 SW 9 15 5 8 1006.2 1005.9 18.0
26/04:00am 10.2 9.2 10.2 100 0.0 SW 6 9 3 5 1006.1 1005.8 18.0
26/03:30am 10.4 9.4 10.4 100 0.0 SSW 6 11 3 6 1006.0 1005.7 18.0
26/03:00am 10.8 9.7 10.8 100 0.0 S 7 11 4 6 1005.9 1005.6 17.8
26/02:30am 11.0 9.6 11.0 100 0.0 S 9 13 5 7 1005.6 1005.3 17.8
26/02:00am 11.6 10.4 11.6 100 0.0 S 9 13 5 7 1005.6 1005.3 17.8
26/01:30am 11.9 11.2 11.9 100 0.0 SW 7 11 4 6 1005.6 1005.3 17.8
26/01:00am 12.0 11.3 12.0 100 0.0 SW 7 11 4 6 1005.3 1005.0 17.8
26/12:30am 12.0 10.2 12.0 100 0.0 WSW 13 20 7 11 1005.5 1005.2 17.6
26/12:00am 11.8 10.3 11.8 100 0.0 NNW 11 17 6 9 1005.7 1005.4 14.6
 
Date/Time
CST
Temp
°C
App
Temp
°C
Dew
Point
Rel
Hum
%
Delta-T
°C
Wind Press
QNH
hPa
Press
MSL
hPa
Rain
since 9 am
mm
Dir
 
Spd
km/h
Gust
km/h
Spd
kts
Gust
kts
25/11:30pm 11.7 10.1 11.7 100 0.0 NNW 11 17 6 9 1005.4 1005.1 8.2
25/11:00pm 11.6 10.0 11.6 100 0.0 NNW 11 17 6 9 1005.9 1005.6 8.0
25/10:30pm 11.8 10.3 11.8 100 0.0 NNW 11 15 6 8 1005.8 1005.5 7.8
25/10:00pm 11.7 9.8 11.7 100 0.0 NNW 13 20 7 11 1006.1 1005.8 7.4
25/09:30pm 11.6 9.3 11.6 100 0.0 NNW 15 20 8 11 1006.1 1005.8 7.4
25/09:00pm 11.7 9.4 11.7 100 0.0 NW 15 20 8 11 1006.0 1005.7 7.0
25/08:30pm 11.7 9.4 11.7 100 0.0 NW 15 20 8 11 1005.7 1005.4 6.8
25/08:00pm 11.6 8.9 11.6 100 0.0 NNW 17 26 9 14 1006.0 1005.7 6.6
25/07:30pm 11.7 9.0 11.7 100 0.0 NW 17 24 9 13 1006.0 1005.7 5.2
25/07:00pm 11.7 8.6 11.5 99 0.1 NW 19 32 10 17 1005.7 1005.4 5.2
25/06:30pm 11.6 8.2 11.4 99 0.1 NNW 20 35 11 19 1005.6 1005.3 5.0
25/06:00pm 11.6 8.2 11.4 99 0.1 NNW 20 41 11 22 1005.6 1005.3 3.4
25/05:30pm 11.5 8.3 11.2 98 0.2 NW 19 35 10 19 1005.5 1005.2 2.0
25/05:00pm 11.5 7.3 11.2 98 0.2 NW 24 39 13 21 1005.6 1005.3 2.0
25/04:30pm 11.5 6.9 11.2 98 0.2 NW 26 43 14 23 1005.6 1005.3 2.0
25/04:00pm 11.8 7.7 11.5 98 0.2 NNW 24 44 13 24 1005.7 1005.4 2.0
25/03:30pm 11.9 8.6 11.6 98 0.2 NW 20 35 11 19 1005.7 1005.4 1.8
25/03:00pm 11.7 8.0 11.4 98 0.2 NNW 22 39 12 21 1005.7 1005.4 1.8
25/02:30pm 11.4 8.2 11.1 98 0.2 NNW 19 32 10 17 1005.7 1005.4 1.8
25/02:00pm 11.2 7.7 10.9 98 0.2 NNW 20 43 11 23 1006.1 1005.8 1.8
25/01:30pm 11.2 7.3 10.9 98 0.2 NNW 22 37 12 20 1006.2 1005.9 1.6
25/01:00pm 11.1 7.8 10.8 98 0.2 NNW 19 35 10 19 1006.6 1006.3 1.6
25/12:30pm 10.7 7.3 10.4 98 0.2 NNW 19 33 10 18 1006.8 1006.5 1.6
25/12:00pm 10.5 7.0 10.2 98 0.2 NNW 19 33 10 18 1007.3 1007.1 1.6
25/11:30am 9.8 6.1 9.5 98 0.2 N 19 37 10 20 1008.3 1008.0 1.6
25/11:00am 9.5 4.7 9.0 97 0.3 NNW 24 43 13 23 1009.0 1008.7 1.0
25/10:46am 9.5 4.0 9.0 97 0.3 NNW 28 50 15 27 1009.3 1009.0 0.4
25/10:30am 9.5 4.3 8.7 95 0.4 NNW 26 56 14 30 1009.5 1009.3 0.2
25/10:21am 9.5 3.9 8.6 94 0.4 NNW 28 56 15 30 1009.6 1009.4 0.2
25/10:00am 9.5 5.3 8.4 93 0.5 NNW 20 43 11 23 1009.5 1009.3 0.2
25/09:30am 9.3 4.3 8.1 92 0.6 NNW 24 44 13 24 1009.6 1009.4 0.2
25/09:00am 9.4 5.0 7.5 88 0.9 NNW 20 33 11 18 1010.3 1010.1 2.2
25/08:30am 10.0 5.3 7.6 85 1.2 N 22 43 12 23 1010.8 1010.5 1.8
25/08:00am 10.3 5.5 7.2 81 1.5 NNW 22 37 12 20 1010.7 1010.4 1.6
25/07:30am 11.5 6.4 5.8 68 2.7 NNW 22 43 12 23 1010.7 1010.4 1.4
25/07:00am 10.6 7.3 6.6 76 1.9 N 13 22 7 12 1010.8 1010.5 1.4
25/06:30am 10.0 6.1 7.3 83 1.3 N 17 32 9 17 1010.9 1010.6 1.4
25/06:00am 9.4 5.6 7.5 88 0.9 N 17 32 9 17 1010.7 1010.4 1.2
25/05:30am 10.2 5.8 6.7 79 1.7 NNW 19 32 10 17 1011.4 1011.1 1.0
25/05:00am 11.1 5.9 5.6 69 2.6 NNW 22 33 12 18 1011.6 1011.3 0.8
25/04:30am 11.4 7.1 5.1 65 2.9 NNW 17 32 9 17 1011.6 1011.3 0.6
25/04:00am 11.9 7.5 4.6 61 3.4 NNW 17 32 9 17 1011.7 1011.4 0.4
25/03:30am 12.9 7.5 2.5 49 4.7 NNW 20 43 11 23 1011.6 1011.3 0.4
25/03:00am 11.8 7.9 3.6 57 3.7 N 13 20 7 11 1012.1 1011.9 0.4
25/02:30am 11.7 5.6 4.9 63 3.2 NW 26 46 14 25 1013.2 1013.0 0.4
25/02:29am 11.9 5.4 4.9 62 3.3 NW 28 46 15 25 1013.4 1013.1 0.4
25/02:00am 15.3 10.3 -0.9 33 6.9 NNW 15 26 8 14 1012.2 1012.0 0.0
25/01:30am 14.8 10.6 -0.9 34 6.6 NNW 11 22 6 12 1011.9 1011.7 0.0
25/01:00am 14.4 10.2 -0.8 35 6.4 N 11 24 6 13 1012.3 1012.1 0.0
25/12:30am 14.4 9.9 -2.9 30 7.0 N 11 26 6 14 1012.7 1012.5 0.0
25/12:00am 14.8 9.9 -3.5 28 7.3 N 13 32 7 17 1013.0 1012.8 0.0
 
Date/Time
CST
Temp
°C
App
Temp
°C
Dew
Point
Rel
Hum
%
Delta-T
°C
Wind Press
QNH
hPa
Press
MSL
hPa
Rain
since 9 am
mm
Dir
 
Spd
km/h
Gust
km/h
Spd
kts
Gust
kts
24/11:30pm 14.7 10.0 -1.8 32 6.8 N 13 24 7 13 1013.1 1012.9 0.0
24/11:00pm 14.2 9.1 -1.8 33 6.6 N 15 26 8 14 1013.2 1013.0 0.0
24/10:30pm 13.7 8.2 -1.9 34 6.4 N 17 28 9 15 1013.9 1013.6 0.0
24/10:00pm 12.8 8.6 1.5 46 4.9 N 13 20 7 11 1014.3 1014.1 0.0

Other Formats:

Comma delimited format used in spreadsheet applications
http://www.bom.gov.au/fwo/IDS60801/IDS60801.94683.axf

JavaScript Object Notation format (JSON) in row-major order
http://www.bom.gov.au/fwo/IDS60801/IDS60801.94683.json